Local Weather Ingen bokad jour idag Saturday 22nd of February
Flygplats METAR TAF
Airport METAR TAF
ESSL - Linköping220150Z AUTO 22014KT 160V260 9999 OVC016/// 07/04 Q0998= 212030Z 2121/2123 22014G25KT 9999 BKN020=
ESSP - Norrköping220150Z AUTO 21013KT 9999 OVC018/// 07/03 Q0998= 212030Z 2121/2123 21015KT 9999 BKN025=
ESGJ - Jönköping220150Z AUTO 21018KT 2500 -DZ BKN005/// OVC014/// 05/05 Q0999= NO VALID TAF PUBLISHED
ESKN - Skavsta220150Z 22016KT 9999 -RA BKN015 06/04 Q0998 RWY 26 DAMP 51-100 PCT LESS THAN 1 MM BA GOOD= 212330Z 2200/2224 23015G25KT 9999 BKN020 PROB40 2210/2215 SHRA BKN014 BKN025CB=
ESSV - Visby220150Z AUTO 21020KT 9999 OVC010/// 05/03 Q1004= 212030Z 2121/2123 23016G28KT CAVOK=
ESGG - Göteborg220150Z 21022KT 2200 -RA SCT004 OVC006 05/04 Q0999 RWY 21 WET OR WATER PATCHES 51-100 PCT BA GOOD= 212330Z 2200/2224 24020G30KT 8000 -RA SCT005 BKN010 TEMPO 2200/2210 2500 RADZ BKN004 BECMG 2203/2206 20020G40KT BECMG 2209/2211 26020G40KT BKN020 TEMPO 2210/2221 SHRA BKN020CB BECMG 2222/2224 26015G30KT=
FLEET STATUS
Flygplan Tid till service Tid till flygstopp Flygtid Landningar
Aircraft Time to service Time to stop Total time Landings
SE-IUD26.5 h31.5 h11 823.5 h23 889 st.
SE-KIT52.8 h112.8 h11 997.2 h23 119 st.
SE-KMH24.9 h29.9 h16 125.1 h60 366 st.
SE-LRL33.9 h43.9 h816.1 h1 503 st.
SE-MEB10.1 h20.1 h1 489.9 h4 557 st.
SE-SIMN/AN/A1 233.1 h184 st.
PPR
Ankomst Avgång Flygplan Namn Bränsle
Arrival Departure Aircraft Name Fuel
NOTAM
>>> ESSL/LINKOPING/SAAB <<<
+ (SNOWTAM 0083 A)ESSL B)02210350 C)11 F)2/2/2 G)XX/XX/XX H)5/5/5 N)2/5 R)2/5) REPORTED: 21 FEB 2020 03:50 - AERODROME CONTROL TOWER (TWR) HOURS OF SERVICE ARE NOW MON-FRI 0445-2200, SAT 0445-0545 0930-1115 1645-1815, SUN 0445-0645 0930-1115 1600-1900 2045-2200 FROM: 17 FEB 2020 00:00 TO: 23 FEB 2020 23:59 ES/B0186/20 - DURING OPENING HOURS OF ATC, PILOTS MAY DECIDE/ATC MAY GIVE PERMISSION TO LET AIRCRAFTS DEPART RWY 29 FROM EAST OF INTERSECTION TWY I. DECLARED INTERMEDIATE DISTANCES RWY 29. TWY I INTERSECTION (EAST OF) 1070 M TAKE-OFF RUN AVAILABLE 1070 M TAKE-OFF DISTANCE AVAILABLE 1070 M ACCELERATE STOP DIST. AVAILABLE FROM: 31 JAN 2020 23:59 TO: 30 APR 2020 23:59 ES/B0282/20 - DURING OPENING HOURS OF ATC, PILOTS MAY DECIDE/ATC MAY GIVE PERMISSION TO LET AIRCRAFTS DEPART RWY 11 FROM INTERSECTION TWY L. DECLARED INTERMEDIATE DISTANCES RWY 11. TWY L INTERSECTION 1420 M TAKE-OFF RUN AVAILABLE 1420 M TAKE-OFF DISTANCE AVAILABLE 1420 M ACCELERATE STOP DIST. AVAILABLE FROM: 31 JAN 2020 00:00 TO: 30 APR 2020 23:59 ES/B0279/20
>>> ESCF/LINKOPING/MALMEN <<<